CFG1VX EGKK-EDDF
Flight info
| Callsign | CFG1VX |
|---|---|
| Flight time | 1h 2m |
| Altitude | 35000 |
| Route | MIMFO Y312 DVR UL9 KONAN UL607 KOK DCT REMBA UL607 SPI T180 NIVNU/N0383F230 T847 IMCOM IMCOM1B |
| Aircraft | A321/M-SDE3FGHIJ1LORVWXYZ/LB1D1 |
Departure
| Time | 2026-04-16 11:42 |
|---|---|
| Airport | London Gatwick Airport (EGKK) |
Arrival
| Time | 2026-04-16 12:45 |
|---|---|
| Airport | Frankfurt Main Airport (EDDF) |
| Time | Latitude | Longitude | Altitude | Speed | Heading |
|---|---|---|---|---|---|
| 2026-04-16 11:09 | 51.15832 | -0.17491 | 215 ft | 0 kts | 347° |
| 2026-04-16 11:11 | 51.15850 | -0.17498 | 211 ft | 0 kts | 347° |
| 2026-04-16 11:32 | 51.15846 | -0.17496 | 213 ft | 3 kts | 347° |
| 2026-04-16 11:32 | 51.15820 | -0.17487 | 212 ft | 4 kts | 347° |
| 2026-04-16 11:33 | 51.15794 | -0.17478 | 211 ft | 4 kts | 344° |
| 2026-04-16 11:33 | 51.15773 | -0.17461 | 216 ft | 4 kts | 295° |
| 2026-04-16 11:33 | 51.15771 | -0.17433 | 212 ft | 4 kts | 257° |
| 2026-04-16 11:33 | 51.15775 | -0.17407 | 213 ft | 0 kts | 257° |
| 2026-04-16 11:37 | 51.15774 | -0.17412 | 213 ft | 2 kts | 258° |
| 2026-04-16 11:37 | 51.15767 | -0.17463 | 208 ft | 8 kts | 254° |
| 2026-04-16 11:37 | 51.15718 | -0.17497 | 212 ft | 9 kts | 169° |
| 2026-04-16 11:38 | 51.15660 | -0.17478 | 204 ft | 7 kts | 167° |
| 2026-04-16 11:38 | 51.15623 | -0.17464 | 209 ft | 4 kts | 167° |
| 2026-04-16 11:38 | 51.15575 | -0.17448 | 213 ft | 10 kts | 167° |
| 2026-04-16 11:38 | 51.15489 | -0.17417 | 204 ft | 14 kts | 167° |
| 2026-04-16 11:39 | 51.15405 | -0.17387 | 209 ft | 11 kts | 168° |
| 2026-04-16 11:39 | 51.15332 | -0.17363 | 211 ft | 11 kts | 168° |
| 2026-04-16 11:39 | 51.15260 | -0.17326 | 211 ft | 10 kts | 133° |
| 2026-04-16 11:39 | 51.15247 | -0.17219 | 213 ft | 11 kts | 77° |
| 2026-04-16 11:40 | 51.15264 | -0.17099 | 211 ft | 12 kts | 77° |
| 2026-04-16 11:40 | 51.15283 | -0.16968 | 204 ft | 13 kts | 77° |
| 2026-04-16 11:40 | 51.15296 | -0.16855 | 204 ft | 8 kts | 96° |
| 2026-04-16 11:40 | 51.15254 | -0.16819 | 207 ft | 8 kts | 167° |
| 2026-04-16 11:41 | 51.15193 | -0.16796 | 210 ft | 10 kts | 167° |
| 2026-04-16 11:41 | 51.15123 | -0.16802 | 206 ft | 11 kts | 229° |
| 2026-04-16 11:41 | 51.15118 | -0.16830 | 207 ft | 0 kts | 257° |
| 2026-04-16 11:41 | 51.15117 | -0.16836 | 207 ft | 4 kts | 257° |
| 2026-04-16 11:42 | 51.15078 | -0.17108 | 206 ft | 58 kts | 257° |
| 2026-04-16 11:42 | 51.14948 | -0.18061 | 207 ft | 117 kts | 257° |
| 2026-04-16 11:42 | 51.14739 | -0.19590 | 274 ft | 154 kts | 254° |
| 2026-04-16 11:42 | 51.14532 | -0.21214 | 971 ft | 147 kts | 256° |
| 2026-04-16 11:43 | 51.14316 | -0.22850 | 1474 ft | 159 kts | 255° |
| 2026-04-16 11:43 | 51.14066 | -0.24674 | 1778 ft | 180 kts | 256° |
| 2026-04-16 11:43 | 51.13786 | -0.26729 | 2094 ft | 197 kts | 257° |
| 2026-04-16 11:43 | 51.13820 | -0.28944 | 2331 ft | 206 kts | 283° |
| 2026-04-16 11:44 | 51.14576 | -0.30882 | 2586 ft | 212 kts | 316° |
| 2026-04-16 11:44 | 51.15938 | -0.31830 | 2846 ft | 223 kts | 351° |
| 2026-04-16 11:44 | 51.17487 | -0.31391 | 3114 ft | 233 kts | 25° |
| 2026-04-16 11:44 | 51.18672 | -0.29686 | 3369 ft | 238 kts | 56° |
| 2026-04-16 11:45 | 51.19350 | -0.27260 | 3642 ft | 244 kts | 72° |
| 2026-04-16 11:45 | 51.19807 | -0.24640 | 3892 ft | 247 kts | 77° |
| 2026-04-16 11:45 | 51.20118 | -0.21943 | 3991 ft | 248 kts | 89° |
| 2026-04-16 11:45 | 51.20068 | -0.19149 | 4368 ft | 261 kts | 95° |
| 2026-04-16 11:46 | 51.19927 | -0.16156 | 4868 ft | 276 kts | 96° |
| 2026-04-16 11:46 | 51.19761 | -0.13062 | 5595 ft | 283 kts | 96° |
| 2026-04-16 11:46 | 51.19593 | -0.09913 | 6374 ft | 288 kts | 96° |
| 2026-04-16 11:46 | 51.19422 | -0.06705 | 7168 ft | 292 kts | 96° |
| 2026-04-16 11:47 | 51.19248 | -0.03470 | 7941 ft | 295 kts | 96° |
| 2026-04-16 11:47 | 51.19074 | -0.00184 | 8714 ft | 300 kts | 96° |
| 2026-04-16 11:47 | 51.18897 | 0.03156 | 9303 ft | 305 kts | 96° |
| 2026-04-16 11:47 | 51.18719 | 0.06547 | 10046 ft | 309 kts | 96° |
| 2026-04-16 11:48 | 51.18532 | 0.10075 | 10297 ft | 331 kts | 96° |
| 2026-04-16 11:48 | 51.18327 | 0.13852 | 10475 ft | 352 kts | 96° |
| 2026-04-16 11:48 | 51.18109 | 0.17787 | 11035 ft | 359 kts | 96° |
| 2026-04-16 11:48 | 51.17884 | 0.21769 | 11666 ft | 363 kts | 96° |
| 2026-04-16 11:49 | 51.17658 | 0.25797 | 12292 ft | 368 kts | 95° |
| 2026-04-16 11:49 | 51.17517 | 0.29892 | 12930 ft | 372 kts | 92° |
| 2026-04-16 11:49 | 51.17463 | 0.34035 | 13583 ft | 376 kts | 91° |
| 2026-04-16 11:49 | 51.17453 | 0.38222 | 14159 ft | 380 kts | 90° |
| 2026-04-16 11:50 | 51.17453 | 0.42452 | 14730 ft | 384 kts | 90° |
| 2026-04-16 11:50 | 51.17448 | 0.46699 | 15300 ft | 388 kts | 91° |
| 2026-04-16 11:50 | 51.17432 | 0.51053 | 15868 ft | 392 kts | 91° |
| 2026-04-16 11:50 | 51.17400 | 0.55406 | 16424 ft | 396 kts | 91° |
| 2026-04-16 11:51 | 51.17355 | 0.59828 | 17010 ft | 400 kts | 91° |
| 2026-04-16 11:51 | 51.17304 | 0.64263 | 17592 ft | 404 kts | 92° |
| 2026-04-16 11:51 | 51.17247 | 0.68777 | 18198 ft | 408 kts | 92° |
| 2026-04-16 11:51 | 51.17187 | 0.73316 | 18722 ft | 412 kts | 92° |
| 2026-04-16 11:52 | 51.17125 | 0.77898 | 19255 ft | 415 kts | 92° |
| 2026-04-16 11:52 | 51.17064 | 0.82515 | 19773 ft | 418 kts | 92° |
| 2026-04-16 11:52 | 51.17004 | 0.87159 | 20290 ft | 421 kts | 92° |
| 2026-04-16 11:52 | 51.16942 | 0.91844 | 20794 ft | 425 kts | 92° |
| 2026-04-16 11:53 | 51.16879 | 0.96560 | 21348 ft | 428 kts | 91° |
| 2026-04-16 11:53 | 51.16814 | 1.01320 | 21832 ft | 431 kts | 92° |
| 2026-04-16 11:53 | 51.16747 | 1.06110 | 22302 ft | 434 kts | 92° |
| 2026-04-16 11:53 | 51.16674 | 1.10937 | 22752 ft | 437 kts | 92° |
| 2026-04-16 11:54 | 51.16599 | 1.15791 | 23197 ft | 440 kts | 92° |
| 2026-04-16 11:54 | 51.16524 | 1.20667 | 23639 ft | 443 kts | 92° |
| 2026-04-16 11:54 | 51.16445 | 1.25527 | 24015 ft | 446 kts | 92° |
| 2026-04-16 11:54 | 51.16360 | 1.30470 | 24354 ft | 449 kts | 92° |
| 2026-04-16 11:55 | 51.16270 | 1.35539 | 24697 ft | 452 kts | 92° |
| 2026-04-16 11:55 | 51.16131 | 1.40556 | 25027 ft | 455 kts | 94° |
| 2026-04-16 11:55 | 51.15918 | 1.45582 | 25359 ft | 458 kts | 95° |
| 2026-04-16 11:55 | 51.15652 | 1.50680 | 25712 ft | 461 kts | 95° |
| 2026-04-16 11:56 | 51.15365 | 1.55788 | 26056 ft | 464 kts | 95° |
| 2026-04-16 11:56 | 51.15080 | 1.60862 | 26385 ft | 467 kts | 95° |
| 2026-04-16 11:56 | 51.14802 | 1.66034 | 26706 ft | 470 kts | 95° |
| 2026-04-16 11:56 | 51.14535 | 1.71241 | 27035 ft | 473 kts | 94° |
| 2026-04-16 11:57 | 51.14275 | 1.76477 | 27359 ft | 476 kts | 94° |
| 2026-04-16 11:57 | 51.14015 | 1.81750 | 27677 ft | 479 kts | 94° |
| 2026-04-16 11:57 | 51.13751 | 1.87052 | 27982 ft | 482 kts | 94° |
| 2026-04-16 11:57 | 51.13478 | 1.92392 | 28299 ft | 484 kts | 94° |
| 2026-04-16 11:58 | 51.13198 | 1.97742 | 28636 ft | 487 kts | 94° |
| 2026-04-16 11:58 | 51.12916 | 2.03131 | 28952 ft | 489 kts | 94° |
| 2026-04-16 11:58 | 51.12632 | 2.08541 | 29247 ft | 492 kts | 94° |
| 2026-04-16 11:58 | 51.12342 | 2.13973 | 29539 ft | 494 kts | 94° |
| 2026-04-16 11:59 | 51.12049 | 2.19444 | 29842 ft | 497 kts | 94° |
| 2026-04-16 11:59 | 51.11751 | 2.24943 | 30101 ft | 500 kts | 94° |
| 2026-04-16 11:59 | 51.11448 | 2.30459 | 30353 ft | 502 kts | 94° |
| 2026-04-16 11:59 | 51.11139 | 2.36005 | 30575 ft | 505 kts | 94° |
| 2026-04-16 12:00 | 51.10931 | 2.39698 | 30724 ft | 506 kts | 94° |
| 2026-04-16 12:00 | 51.10613 | 2.45283 | 30965 ft | 508 kts | 94° |
| 2026-04-16 12:00 | 51.10295 | 2.50887 | 31190 ft | 511 kts | 94° |
| 2026-04-16 12:00 | 51.09973 | 2.56536 | 31413 ft | 513 kts | 94° |
| 2026-04-16 12:01 | 51.09638 | 2.62196 | 31728 ft | 514 kts | 96° |
| 2026-04-16 12:01 | 51.08994 | 2.67792 | 32024 ft | 515 kts | 105° |
| 2026-04-16 12:01 | 51.08012 | 2.73271 | 32309 ft | 516 kts | 107° |
| 2026-04-16 12:02 | 51.06011 | 2.84259 | 32904 ft | 518 kts | 106° |
| 2026-04-16 12:02 | 51.05014 | 2.89754 | 33221 ft | 518 kts | 106° |
| 2026-04-16 12:02 | 51.04011 | 2.95264 | 33518 ft | 519 kts | 106° |
| 2026-04-16 12:02 | 51.03005 | 3.00780 | 33801 ft | 520 kts | 106° |
| 2026-04-16 12:03 | 51.01993 | 3.06302 | 34074 ft | 521 kts | 106° |
| 2026-04-16 12:03 | 51.00977 | 3.11823 | 34330 ft | 522 kts | 106° |
| 2026-04-16 12:03 | 50.99959 | 3.17353 | 34608 ft | 522 kts | 106° |
| 2026-04-16 12:03 | 50.98937 | 3.22880 | 34922 ft | 520 kts | 106° |
| 2026-04-16 12:04 | 50.97915 | 3.28378 | 35160 ft | 519 kts | 106° |
| 2026-04-16 12:04 | 50.96896 | 3.33840 | 35214 ft | 512 kts | 106° |
| 2026-04-16 12:04 | 50.94880 | 3.44583 | 35219 ft | 507 kts | 106° |
| 2026-04-16 12:05 | 50.92862 | 3.55286 | 35223 ft | 506 kts | 106° |
| 2026-04-16 12:05 | 50.90847 | 3.65960 | 35222 ft | 506 kts | 106° |
| 2026-04-16 12:06 | 50.88822 | 3.76624 | 35228 ft | 506 kts | 106° |
| 2026-04-16 12:06 | 50.86780 | 3.87279 | 35242 ft | 505 kts | 106° |
| 2026-04-16 12:07 | 50.84731 | 3.97888 | 35250 ft | 504 kts | 107° |
| 2026-04-16 12:07 | 50.82679 | 4.08479 | 35247 ft | 503 kts | 107° |
| 2026-04-16 12:08 | 50.80617 | 4.19046 | 35242 ft | 503 kts | 107° |
| 2026-04-16 12:08 | 50.78559 | 4.29599 | 35226 ft | 502 kts | 106° |
| 2026-04-16 12:09 | 50.76490 | 4.40138 | 35232 ft | 502 kts | 107° |
| 2026-04-16 12:09 | 50.74401 | 4.50684 | 35235 ft | 502 kts | 107° |
| 2026-04-16 12:10 | 50.72303 | 4.61198 | 35237 ft | 502 kts | 107° |
| 2026-04-16 12:10 | 50.70196 | 4.71712 | 35237 ft | 502 kts | 107° |
| 2026-04-16 12:11 | 50.68092 | 4.82194 | 35249 ft | 501 kts | 107° |
| 2026-04-16 12:11 | 50.65980 | 4.92650 | 35247 ft | 500 kts | 107° |
| 2026-04-16 12:12 | 50.63842 | 5.03059 | 35247 ft | 500 kts | 107° |
| 2026-04-16 12:12 | 50.61702 | 5.13399 | 35246 ft | 499 kts | 107° |
| 2026-04-16 12:13 | 50.59552 | 5.23773 | 35249 ft | 498 kts | 107° |
| 2026-04-16 12:13 | 50.57407 | 5.34114 | 35247 ft | 497 kts | 107° |
| 2026-04-16 12:14 | 50.55252 | 5.44452 | 35228 ft | 499 kts | 108° |
| 2026-04-16 12:14 | 50.53061 | 5.54853 | 35210 ft | 501 kts | 108° |
| 2026-04-16 12:15 | 50.50878 | 5.65242 | 35201 ft | 502 kts | 107° |
| 2026-04-16 12:15 | 50.48882 | 5.75715 | 35238 ft | 500 kts | 105° |
| 2026-04-16 12:16 | 50.46996 | 5.86229 | 35234 ft | 501 kts | 105° |
| 2026-04-16 12:16 | 50.46041 | 5.91487 | 35042 ft | 501 kts | 105° |
| 2026-04-16 12:16 | 50.45058 | 5.96786 | 33890 ft | 513 kts | 105° |
| 2026-04-16 12:17 | 50.44034 | 6.02188 | 32820 ft | 519 kts | 106° |
| 2026-04-16 12:17 | 50.42997 | 6.07582 | 32263 ft | 513 kts | 107° |
| 2026-04-16 12:17 | 50.41969 | 6.12906 | 31728 ft | 507 kts | 107° |
| 2026-04-16 12:17 | 50.40953 | 6.18179 | 31237 ft | 502 kts | 107° |
| 2026-04-16 12:18 | 50.39950 | 6.23392 | 30746 ft | 497 kts | 108° |
| 2026-04-16 12:18 | 50.38958 | 6.28548 | 30267 ft | 492 kts | 108° |
| 2026-04-16 12:18 | 50.37977 | 6.33648 | 29667 ft | 487 kts | 108° |
| 2026-04-16 12:18 | 50.37003 | 6.38705 | 29087 ft | 482 kts | 107° |
| 2026-04-16 12:19 | 50.36278 | 6.43811 | 28386 ft | 481 kts | 97° |
| 2026-04-16 12:19 | 50.35948 | 6.49012 | 27733 ft | 478 kts | 95° |
| 2026-04-16 12:19 | 50.35642 | 6.54173 | 27170 ft | 474 kts | 95° |
| 2026-04-16 12:19 | 50.35329 | 6.59289 | 26610 ft | 470 kts | 95° |
| 2026-04-16 12:20 | 50.35009 | 6.64359 | 25960 ft | 467 kts | 95° |
| 2026-04-16 12:20 | 50.34675 | 6.69475 | 25048 ft | 474 kts | 95° |
| 2026-04-16 12:20 | 50.34338 | 6.74588 | 24374 ft | 472 kts | 95° |
| 2026-04-16 12:20 | 50.34008 | 6.79693 | 23783 ft | 469 kts | 95° |
| 2026-04-16 12:21 | 50.33578 | 6.84729 | 23167 ft | 466 kts | 102° |
| 2026-04-16 12:21 | 50.32610 | 6.89534 | 22595 ft | 461 kts | 114° |
| 2026-04-16 12:21 | 50.31277 | 6.94061 | 21977 ft | 456 kts | 116° |
| 2026-04-16 12:21 | 50.29958 | 6.98470 | 21379 ft | 452 kts | 116° |
| 2026-04-16 12:22 | 50.28632 | 7.02902 | 20825 ft | 447 kts | 116° |
| 2026-04-16 12:22 | 50.27322 | 7.07285 | 20351 ft | 443 kts | 116° |
| 2026-04-16 12:22 | 50.26002 | 7.11699 | 20185 ft | 442 kts | 116° |
| 2026-04-16 12:22 | 50.24716 | 7.15992 | 20220 ft | 443 kts | 116° |
| 2026-04-16 12:23 | 50.23392 | 7.20407 | 20220 ft | 443 kts | 116° |
| 2026-04-16 12:23 | 50.22101 | 7.24703 | 20220 ft | 443 kts | 116° |
| 2026-04-16 12:23 | 50.20786 | 7.29060 | 20220 ft | 443 kts | 116° |
| 2026-04-16 12:23 | 50.19482 | 7.33413 | 20222 ft | 443 kts | 115° |
| 2026-04-16 12:24 | 50.18282 | 7.37846 | 20212 ft | 443 kts | 112° |
| 2026-04-16 12:24 | 50.17190 | 7.42342 | 20200 ft | 442 kts | 110° |
| 2026-04-16 12:24 | 50.16168 | 7.46822 | 19703 ft | 437 kts | 110° |
| 2026-04-16 12:24 | 50.15175 | 7.51277 | 19128 ft | 433 kts | 109° |
| 2026-04-16 12:25 | 50.14182 | 7.55693 | 18567 ft | 429 kts | 110° |
| 2026-04-16 12:25 | 50.13174 | 7.60047 | 17961 ft | 426 kts | 111° |
| 2026-04-16 12:25 | 50.12147 | 7.64355 | 17363 ft | 421 kts | 111° |
| 2026-04-16 12:25 | 50.11018 | 7.68526 | 16777 ft | 416 kts | 120° |
| 2026-04-16 12:26 | 50.09438 | 7.72265 | 16236 ft | 411 kts | 127° |
| 2026-04-16 12:26 | 50.07809 | 7.75896 | 15694 ft | 407 kts | 126° |
| 2026-04-16 12:26 | 50.06200 | 7.79496 | 15147 ft | 403 kts | 126° |
| 2026-04-16 12:26 | 50.04612 | 7.83064 | 14612 ft | 400 kts | 126° |
| 2026-04-16 12:27 | 50.03035 | 7.86613 | 14125 ft | 396 kts | 126° |
| 2026-04-16 12:27 | 50.01475 | 7.90115 | 13586 ft | 393 kts | 126° |
| 2026-04-16 12:27 | 49.99922 | 7.93589 | 13252 ft | 390 kts | 126° |
| 2026-04-16 12:27 | 49.98516 | 7.97164 | 13139 ft | 383 kts | 120° |
| 2026-04-16 12:28 | 49.97245 | 8.00706 | 13006 ft | 368 kts | 120° |
| 2026-04-16 12:28 | 49.96020 | 8.04119 | 12868 ft | 355 kts | 120° |
| 2026-04-16 12:28 | 49.94839 | 8.07410 | 12719 ft | 343 kts | 120° |
| 2026-04-16 12:28 | 49.93686 | 8.10619 | 12411 ft | 338 kts | 120° |
| 2026-04-16 12:29 | 49.92544 | 8.13781 | 12043 ft | 334 kts | 121° |
| 2026-04-16 12:29 | 49.91409 | 8.16913 | 11683 ft | 332 kts | 121° |
| 2026-04-16 12:29 | 49.90283 | 8.20017 | 11359 ft | 329 kts | 120° |
| 2026-04-16 12:29 | 49.89219 | 8.23146 | 10983 ft | 327 kts | 113° |
| 2026-04-16 12:30 | 49.88607 | 8.26519 | 10607 ft | 325 kts | 98° |
| 2026-04-16 12:30 | 49.88543 | 8.29995 | 10232 ft | 322 kts | 84° |
| 2026-04-16 12:30 | 49.89007 | 8.33327 | 10075 ft | 311 kts | 70° |
| 2026-04-16 12:30 | 49.89752 | 8.36412 | 9907 ft | 301 kts | 69° |
| 2026-04-16 12:31 | 49.90482 | 8.39423 | 9580 ft | 297 kts | 69° |
| 2026-04-16 12:31 | 49.91203 | 8.42411 | 9195 ft | 295 kts | 69° |
| 2026-04-16 12:31 | 49.91915 | 8.45375 | 8826 ft | 293 kts | 69° |
| 2026-04-16 12:31 | 49.92623 | 8.48332 | 8637 ft | 292 kts | 69° |
| 2026-04-16 12:32 | 49.93323 | 8.51251 | 8525 ft | 292 kts | 69° |
| 2026-04-16 12:32 | 49.94031 | 8.54210 | 8404 ft | 292 kts | 69° |
| 2026-04-16 12:32 | 49.94737 | 8.57159 | 8265 ft | 291 kts | 69° |
| 2026-04-16 12:32 | 49.95443 | 8.60104 | 8143 ft | 291 kts | 69° |
| 2026-04-16 12:33 | 49.96147 | 8.63047 | 8022 ft | 290 kts | 69° |
| 2026-04-16 12:33 | 49.96849 | 8.65978 | 7882 ft | 289 kts | 69° |
| 2026-04-16 12:33 | 49.97550 | 8.68909 | 7768 ft | 289 kts | 69° |
| 2026-04-16 12:33 | 49.98247 | 8.71833 | 7636 ft | 288 kts | 69° |
| 2026-04-16 12:34 | 49.98940 | 8.74751 | 7513 ft | 288 kts | 69° |
| 2026-04-16 12:34 | 49.99632 | 8.77669 | 7388 ft | 287 kts | 69° |
| 2026-04-16 12:34 | 50.00321 | 8.80583 | 7267 ft | 287 kts | 69° |
| 2026-04-16 12:34 | 50.01006 | 8.83486 | 7144 ft | 287 kts | 69° |
| 2026-04-16 12:35 | 50.01689 | 8.86393 | 7020 ft | 286 kts | 69° |
| 2026-04-16 12:35 | 50.02365 | 8.89262 | 6840 ft | 277 kts | 69° |
| 2026-04-16 12:35 | 50.03013 | 8.92013 | 6714 ft | 266 kts | 69° |
| 2026-04-16 12:35 | 50.03639 | 8.94655 | 6591 ft | 255 kts | 69° |
| 2026-04-16 12:36 | 50.04248 | 8.97214 | 6366 ft | 250 kts | 69° |
| 2026-04-16 12:36 | 50.04845 | 8.99740 | 6117 ft | 247 kts | 69° |
| 2026-04-16 12:36 | 50.05466 | 9.02232 | 5989 ft | 247 kts | 61° |
| 2026-04-16 12:36 | 50.06588 | 9.04172 | 5867 ft | 242 kts | 28° |
| 2026-04-16 12:37 | 50.08169 | 9.04909 | 5739 ft | 237 kts | 356° |
| 2026-04-16 12:37 | 50.09770 | 9.04453 | 5619 ft | 234 kts | 341° |
| 2026-04-16 12:37 | 50.11323 | 9.03688 | 5535 ft | 235 kts | 339° |
| 2026-04-16 12:37 | 50.12873 | 9.02874 | 5454 ft | 235 kts | 339° |
| 2026-04-16 12:38 | 50.14288 | 9.01661 | 5377 ft | 237 kts | 312° |
| 2026-04-16 12:38 | 50.15069 | 8.99386 | 5313 ft | 246 kts | 278° |
| 2026-04-16 12:38 | 50.14878 | 8.96750 | 5243 ft | 248 kts | 252° |
| 2026-04-16 12:38 | 50.14273 | 8.94216 | 5138 ft | 250 kts | 249° |
| 2026-04-16 12:39 | 50.13652 | 8.91690 | 5024 ft | 249 kts | 250° |
| 2026-04-16 12:39 | 50.13056 | 8.89171 | 5010 ft | 245 kts | 250° |
| 2026-04-16 12:39 | 50.12488 | 8.86745 | 4989 ft | 232 kts | 250° |
| 2026-04-16 12:39 | 50.11942 | 8.84425 | 4785 ft | 224 kts | 250° |
| 2026-04-16 12:40 | 50.11412 | 8.82173 | 4471 ft | 220 kts | 250° |
| 2026-04-16 12:40 | 50.10889 | 8.79951 | 4161 ft | 217 kts | 250° |
| 2026-04-16 12:40 | 50.10373 | 8.77765 | 3839 ft | 213 kts | 250° |
| 2026-04-16 12:40 | 50.09869 | 8.75635 | 3561 ft | 204 kts | 250° |
| 2026-04-16 12:41 | 50.09396 | 8.73631 | 3277 ft | 191 kts | 250° |
| 2026-04-16 12:41 | 50.08944 | 8.71721 | 2994 ft | 185 kts | 249° |
| 2026-04-16 12:41 | 50.08501 | 8.69855 | 2744 ft | 182 kts | 250° |
| 2026-04-16 12:41 | 50.08066 | 8.68018 | 2485 ft | 180 kts | 250° |
| 2026-04-16 12:42 | 50.07639 | 8.66220 | 2219 ft | 174 kts | 250° |
| 2026-04-16 12:42 | 50.07227 | 8.64485 | 1971 ft | 168 kts | 249° |
| 2026-04-16 12:42 | 50.06834 | 8.62831 | 1748 ft | 160 kts | 250° |
| 2026-04-16 12:42 | 50.06466 | 8.61284 | 1521 ft | 145 kts | 249° |
| 2026-04-16 12:43 | 50.06129 | 8.59868 | 1324 ft | 140 kts | 249° |
| 2026-04-16 12:43 | 50.05787 | 8.58412 | 1092 ft | 141 kts | 249° |
| 2026-04-16 12:43 | 50.05451 | 8.56978 | 935 ft | 142 kts | 247° |
| 2026-04-16 12:43 | 50.05110 | 8.55548 | 713 ft | 139 kts | 247° |
| 2026-04-16 12:44 | 50.04770 | 8.54135 | 534 ft | 139 kts | 248° |
| 2026-04-16 12:44 | 50.04432 | 8.52739 | 365 ft | 136 kts | 249° |
| 2026-04-16 12:44 | 50.04136 | 8.51499 | 333 ft | 101 kts | 248° |
| 2026-04-16 12:44 | 50.03951 | 8.50745 | 323 ft | 50 kts | 249° |
| 2026-04-16 12:45 | 50.03846 | 8.50401 | 321 ft | 29 kts | 231° |
| 2026-04-16 12:45 | 50.03716 | 8.50220 | 321 ft | 10 kts | 220° |
| 2026-04-16 12:45 | 50.03664 | 8.50178 | 320 ft | 7 kts | 186° |
| 2026-04-16 12:45 | 50.03636 | 8.50202 | 320 ft | 5 kts | 135° |
| 2026-04-16 12:46 | 50.03626 | 8.50246 | 321 ft | 9 kts | 95° |
| 2026-04-16 12:46 | 50.03650 | 8.50383 | 323 ft | 18 kts | 71° |
| 2026-04-16 12:46 | 50.03701 | 8.50587 | 324 ft | 19 kts | 68° |
| 2026-04-16 12:46 | 50.03742 | 8.50755 | 323 ft | 14 kts | 70° |
| 2026-04-16 12:47 | 50.03778 | 8.50909 | 328 ft | 11 kts | 70° |
| 2026-04-16 12:47 | 50.03801 | 8.51004 | 327 ft | 17 kts | 69° |
| 2026-04-16 12:47 | 50.03878 | 8.51329 | 333 ft | 30 kts | 69° |
| 2026-04-16 12:47 | 50.03923 | 8.51516 | 335 ft | 27 kts | 69° |
| 2026-04-16 12:48 | 50.03985 | 8.51775 | 337 ft | 24 kts | 70° |
| 2026-04-16 12:48 | 50.04043 | 8.52017 | 337 ft | 23 kts | 69° |
| 2026-04-16 12:48 | 50.04098 | 8.52249 | 351 ft | 22 kts | 71° |
| 2026-04-16 12:48 | 50.04153 | 8.52474 | 350 ft | 22 kts | 69° |
| 2026-04-16 12:49 | 50.04213 | 8.52730 | 351 ft | 29 kts | 70° |
| 2026-04-16 12:49 | 50.04282 | 8.53019 | 353 ft | 27 kts | 69° |
| 2026-04-16 12:49 | 50.04347 | 8.53288 | 361 ft | 26 kts | 70° |
| 2026-04-16 12:49 | 50.04399 | 8.53554 | 367 ft | 26 kts | 84° |
| 2026-04-16 12:50 | 50.04417 | 8.53840 | 361 ft | 26 kts | 84° |
| 2026-04-16 12:50 | 50.04433 | 8.54094 | 366 ft | 22 kts | 84° |
| 2026-04-16 12:50 | 50.04448 | 8.54330 | 366 ft | 23 kts | 85° |
| 2026-04-16 12:50 | 50.04435 | 8.54576 | 366 ft | 23 kts | 112° |
| 2026-04-16 12:51 | 50.04341 | 8.54745 | 361 ft | 19 kts | 146° |
| 2026-04-16 12:51 | 50.04230 | 8.54819 | 362 ft | 15 kts | 160° |
| 2026-04-16 12:51 | 50.04140 | 8.54871 | 362 ft | 12 kts | 159° |
| 2026-04-16 12:51 | 50.04065 | 8.54914 | 364 ft | 11 kts | 160° |
| 2026-04-16 12:52 | 50.04018 | 8.54985 | 361 ft | 10 kts | 100° |
| 2026-04-16 12:52 | 50.04041 | 8.55112 | 364 ft | 15 kts | 70° |
| 2026-04-16 12:52 | 50.04086 | 8.55300 | 366 ft | 21 kts | 69° |
| 2026-04-16 12:52 | 50.04145 | 8.55546 | 366 ft | 27 kts | 70° |
| 2026-04-16 12:53 | 50.04213 | 8.55832 | 365 ft | 27 kts | 69° |
| 2026-04-16 12:53 | 50.04274 | 8.56090 | 364 ft | 24 kts | 72° |
| 2026-04-16 12:53 | 50.04325 | 8.56308 | 364 ft | 20 kts | 68° |
| 2026-04-16 12:53 | 50.04380 | 8.56525 | 362 ft | 23 kts | 70° |
| 2026-04-16 12:54 | 50.04437 | 8.56766 | 365 ft | 23 kts | 70° |
| 2026-04-16 12:54 | 50.04488 | 8.56979 | 365 ft | 19 kts | 69° |
| 2026-04-16 12:54 | 50.04526 | 8.57140 | 361 ft | 6 kts | 69° |
| 2026-04-16 12:54 | 50.04539 | 8.57180 | 362 ft | 2 kts | 46° |
| 2026-04-16 12:55 | 50.04556 | 8.57191 | 361 ft | 5 kts | 18° |
| 2026-04-16 12:55 | 50.04598 | 8.57196 | 362 ft | 5 kts | 3° |
| 2026-04-16 12:55 | 50.04610 | 8.57198 | 365 ft | 0 kts | 5° |